Pagina principale
METAR-TAF:

METAR-TAF

Aeroporti :

Aeroporto militare

Salon-de-Provence, Francia

latitudine: 43-36N, longitudine: 005-06E, altezza: 59 m

Osservazione

Il bollettino è stato emesso 27 minuti fa, alle 06:30 UTC
Vento 2 kt da direzioni variabili
Temperature 1°C
Umidità 93%
Pressione 1009 hPa
Visibilità: 9000 m

METAR: LFMY 180630Z AUTO VRB02KT 9000 NSC 01/00 Q1009 NOSIG

Ora: 07:57 (06:57 UTC)

Previsione

Il bollettino è stato emesso 1 ora e 11 minuti fa, alle 05:46 UTC
Previsione valida dal 18 alle 05 UTC al 19 alle 03 UTC
Vento 2 kt da direzioni variabili
Visibilità 10 km o più
nessuna nube inferiore a 1500 m e nessun cumulonembo
Evoluzione graduale
dal 18 alle 12 UTC al 18 alle 14 UTC
Vento 12 kt da nord
Temporaneamente
dal 18 alle 18 UTC al 19 alle 03 UTC
Visibilità: 4000 m
pioggia

TAF: LFMY 180546Z 1805/1903 VRB02KT CAVOK BECMG 1812/1814 35012KT TEMPO 1818/1903 4000 RA

Osservazioni e previsioni meteorologiche di più di 4000 aeroporti (messaggi METAR e TAF).

Le stazioni disponibili sono rappresentate dai dischi gialli e rossi sulla carta.

Puntare il mouse per vedere il nome della stazione.

Clicca sopra per visualizzare le osservazioni e previsioni meteorologiche.

Per cambiare la mappa : fare clic sui pulsanti verdi con una croce nera per ingrandire, il pulsante verde con un trattino per diminuire, o sulla freccia verde per le mappe adiacenti.


METAR-TAF: